sensor_id;sensor_type;location;lat;lon;timestamp;temperature;humidity
4584;DHT22;2304;47.606;12.186;2023-12-07T00:04:35;3.90;83.40
4584;DHT22;2304;47.606;12.186;2023-12-07T00:09:38;3.90;83.10
4584;DHT22;2304;47.606;12.186;2023-12-07T00:14:40;3.80;83.80
4584;DHT22;2304;47.606;12.186;2023-12-07T00:19:42;3.80;84.00
4584;DHT22;2304;47.606;12.186;2023-12-07T00:24:45;3.90;83.80
4584;DHT22;2304;47.606;12.186;2023-12-07T00:29:47;4.00;83.70
4584;DHT22;2304;47.606;12.186;2023-12-07T00:34:49;3.80;83.90
4584;DHT22;2304;47.606;12.186;2023-12-07T00:39:52;3.90;83.40
4584;DHT22;2304;47.606;12.186;2023-12-07T00:49:57;4.00;82.80
4584;DHT22;2304;47.606;12.186;2023-12-07T00:55:00;4.00;82.70
4584;DHT22;2304;47.606;12.186;2023-12-07T01:00:02;4.00;82.80
4584;DHT22;2304;47.606;12.186;2023-12-07T01:05:05;4.00;82.50
4584;DHT22;2304;47.606;12.186;2023-12-07T01:10:09;4.00;83.30
4584;DHT22;2304;47.606;12.186;2023-12-07T01:15:11;4.10;83.10
4584;DHT22;2304;47.606;12.186;2023-12-07T01:20:13;4.00;82.00
4584;DHT22;2304;47.606;12.186;2023-12-07T01:25:16;4.00;83.10
4584;DHT22;2304;47.606;12.186;2023-12-07T01:30:21;4.00;82.70
4584;DHT22;2304;47.606;12.186;2023-12-07T01:35:23;4.00;81.90
4584;DHT22;2304;47.606;12.186;2023-12-07T01:40:27;4.00;82.70
4584;DHT22;2304;47.606;12.186;2023-12-07T01:45:28;4.10;82.30
4584;DHT22;2304;47.606;12.186;2023-12-07T01:50:30;4.10;81.90
4584;DHT22;2304;47.606;12.186;2023-12-07T01:55:34;4.10;81.70
4584;DHT22;2304;47.606;12.186;2023-12-07T02:00:36;4.00;81.50
4584;DHT22;2304;47.606;12.186;2023-12-07T02:05:42;3.90;81.50
4584;DHT22;2304;47.606;12.186;2023-12-07T02:10:45;3.90;81.90
4584;DHT22;2304;47.606;12.186;2023-12-07T02:15:47;3.80;82.00
4584;DHT22;2304;47.606;12.186;2023-12-07T02:20:55;3.80;82.40
4584;DHT22;2304;47.606;12.186;2023-12-07T02:26:03;3.80;82.70
4584;DHT22;2304;47.606;12.186;2023-12-07T02:31:06;3.80;82.30
4584;DHT22;2304;47.606;12.186;2023-12-07T02:36:09;3.80;82.60
4584;DHT22;2304;47.606;12.186;2023-12-07T02:41:11;3.80;82.50
4584;DHT22;2304;47.606;12.186;2023-12-07T02:46:14;3.90;81.50
4584;DHT22;2304;47.606;12.186;2023-12-07T02:51:16;3.90;80.20
4584;DHT22;2304;47.606;12.186;2023-12-07T02:56:18;3.90;79.30
4584;DHT22;2304;47.606;12.186;2023-12-07T03:01:21;4.00;78.60
4584;DHT22;2304;47.606;12.186;2023-12-07T03:06:23;4.00;77.50
4584;DHT22;2304;47.606;12.186;2023-12-07T03:11:25;3.90;77.90
4584;DHT22;2304;47.606;12.186;2023-12-07T03:16:28;3.90;79.40
4584;DHT22;2304;47.606;12.186;2023-12-07T03:21:30;3.90;79.90
4584;DHT22;2304;47.606;12.186;2023-12-07T03:26:32;3.90;80.10
4584;DHT22;2304;47.606;12.186;2023-12-07T03:31:35;3.90;80.20
4584;DHT22;2304;47.606;12.186;2023-12-07T03:36:37;3.90;80.50
4584;DHT22;2304;47.606;12.186;2023-12-07T03:41:39;3.90;80.60
4584;DHT22;2304;47.606;12.186;2023-12-07T03:46:42;3.90;80.60
4584;DHT22;2304;47.606;12.186;2023-12-07T03:51:44;4.00;80.60
4584;DHT22;2304;47.606;12.186;2023-12-07T03:56:46;4.00;80.60
4584;DHT22;2304;47.606;12.186;2023-12-07T04:01:50;4.00;80.40
4584;DHT22;2304;47.606;12.186;2023-12-07T04:06:51;3.90;79.90
4584;DHT22;2304;47.606;12.186;2023-12-07T04:11:53;4.00;80.20
4584;DHT22;2304;47.606;12.186;2023-12-07T04:16:56;4.00;80.40
4584;DHT22;2304;47.606;12.186;2023-12-07T04:21:58;4.00;79.80
4584;DHT22;2304;47.606;12.186;2023-12-07T04:27:00;4.00;79.60
4584;DHT22;2304;47.606;12.186;2023-12-07T04:32:04;4.00;79.30
4584;DHT22;2304;47.606;12.186;2023-12-07T04:37:06;3.90;79.90
4584;DHT22;2304;47.606;12.186;2023-12-07T04:42:08;3.80;80.00
4584;DHT22;2304;47.606;12.186;2023-12-07T04:47:11;3.90;80.20
4584;DHT22;2304;47.606;12.186;2023-12-07T04:52:13;3.90;79.70
4584;DHT22;2304;47.606;12.186;2023-12-07T04:57:15;3.90;79.40
4584;DHT22;2304;47.606;12.186;2023-12-07T05:02:18;3.80;79.50
4584;DHT22;2304;47.606;12.186;2023-12-07T05:07:20;3.80;80.20
4584;DHT22;2304;47.606;12.186;2023-12-07T05:12:22;3.90;79.50
4584;DHT22;2304;47.606;12.186;2023-12-07T05:17:25;3.90;79.70
4584;DHT22;2304;47.606;12.186;2023-12-07T05:22:27;3.80;79.70
4584;DHT22;2304;47.606;12.186;2023-12-07T05:27:29;3.90;80.40
4584;DHT22;2304;47.606;12.186;2023-12-07T05:32:32;3.90;80.50
4584;DHT22;2304;47.606;12.186;2023-12-07T05:37:34;3.90;80.30
4584;DHT22;2304;47.606;12.186;2023-12-07T05:42:36;3.70;80.70
4584;DHT22;2304;47.606;12.186;2023-12-07T05:47:39;3.80;81.60
4584;DHT22;2304;47.606;12.186;2023-12-07T05:52:41;3.80;81.60
4584;DHT22;2304;47.606;12.186;2023-12-07T05:57:45;3.80;81.60
4584;DHT22;2304;47.606;12.186;2023-12-07T06:02:48;3.90;80.90
4584;DHT22;2304;47.606;12.186;2023-12-07T06:07:50;3.90;80.90
4584;DHT22;2304;47.606;12.186;2023-12-07T06:12:54;3.90;80.50
4584;DHT22;2304;47.606;12.186;2023-12-07T06:17:58;3.90;80.70
4584;DHT22;2304;47.606;12.186;2023-12-07T06:23:00;3.90;80.70
4584;DHT22;2304;47.606;12.186;2023-12-07T06:28:02;3.90;80.70
4584;DHT22;2304;47.606;12.186;2023-12-07T06:33:05;3.90;80.30
4584;DHT22;2304;47.606;12.186;2023-12-07T06:38:08;3.90;80.40
4584;DHT22;2304;47.606;12.186;2023-12-07T06:43:09;3.90;79.70
4584;DHT22;2304;47.606;12.186;2023-12-07T06:48:13;3.90;79.10
4584;DHT22;2304;47.606;12.186;2023-12-07T06:53:15;3.80;79.50
4584;DHT22;2304;47.606;12.186;2023-12-07T06:58:19;3.80;79.60
4584;DHT22;2304;47.606;12.186;2023-12-07T07:03:22;3.70;79.90
4584;DHT22;2304;47.606;12.186;2023-12-07T07:08:25;3.70;80.40
4584;DHT22;2304;47.606;12.186;2023-12-07T07:13:26;3.60;80.20
4584;DHT22;2304;47.606;12.186;2023-12-07T07:18:30;3.50;80.30
4584;DHT22;2304;47.606;12.186;2023-12-07T07:23:31;3.50;80.60
4584;DHT22;2304;47.606;12.186;2023-12-07T07:28:33;3.50;81.10
4584;DHT22;2304;47.606;12.186;2023-12-07T07:33:38;3.50;81.00
4584;DHT22;2304;47.606;12.186;2023-12-07T07:38:39;3.40;80.60
4584;DHT22;2304;47.606;12.186;2023-12-07T07:43:41;3.50;80.40
4584;DHT22;2304;47.606;12.186;2023-12-07T07:48:45;3.40;79.90
4584;DHT22;2304;47.606;12.186;2023-12-07T07:53:46;3.40;80.00
4584;DHT22;2304;47.606;12.186;2023-12-07T07:58:48;3.40;80.20
4584;DHT22;2304;47.606;12.186;2023-12-07T08:03:51;3.40;79.80
4584;DHT22;2304;47.606;12.186;2023-12-07T08:08:53;3.40;79.50
4584;DHT22;2304;47.606;12.186;2023-12-07T08:13:55;3.30;78.30
4584;DHT22;2304;47.606;12.186;2023-12-07T08:18:58;3.30;78.10
4584;DHT22;2304;47.606;12.186;2023-12-07T08:24:00;3.40;77.80
4584;DHT22;2304;47.606;12.186;2023-12-07T08:29:02;3.40;77.80
4584;DHT22;2304;47.606;12.186;2023-12-07T08:34:05;3.40;77.90
4584;DHT22;2304;47.606;12.186;2023-12-07T08:39:07;3.30;77.70
4584;DHT22;2304;47.606;12.186;2023-12-07T08:44:10;3.60;79.60
4584;DHT22;2304;47.606;12.186;2023-12-07T08:49:14;4.10;83.00
4584;DHT22;2304;47.606;12.186;2023-12-07T08:54:16;4.40;78.90
4584;DHT22;2304;47.606;12.186;2023-12-07T08:59:18;4.90;79.80
4584;DHT22;2304;47.606;12.186;2023-12-07T09:04:21;5.40;77.30
4584;DHT22;2304;47.606;12.186;2023-12-07T09:09:23;5.70;73.20
4584;DHT22;2304;47.606;12.186;2023-12-07T09:14:26;5.90;72.30
4584;DHT22;2304;47.606;12.186;2023-12-07T09:19:29;6.30;69.60
4584;DHT22;2304;47.606;12.186;2023-12-07T09:24:31;6.30;67.40
4584;DHT22;2304;47.606;12.186;2023-12-07T09:29:35;6.30;63.00
4584;DHT22;2304;47.606;12.186;2023-12-07T09:34:39;6.40;64.60
4584;DHT22;2304;47.606;12.186;2023-12-07T09:39:41;6.40;60.90
4584;DHT22;2304;47.606;12.186;2023-12-07T09:44:43;6.50;61.70
4584;DHT22;2304;47.606;12.186;2023-12-07T09:49:46;6.50;62.10
4584;DHT22;2304;47.606;12.186;2023-12-07T09:54:49;6.30;60.80
4584;DHT22;2304;47.606;12.186;2023-12-07T09:59:51;6.30;62.10
4584;DHT22;2304;47.606;12.186;2023-12-07T10:05:05;6.40;61.80
4584;DHT22;2304;47.606;12.186;2023-12-07T10:10:08;6.40;61.30
4584;DHT22;2304;47.606;12.186;2023-12-07T10:15:12;6.20;61.90
4584;DHT22;2304;47.606;12.186;2023-12-07T10:20:17;6.20;62.80
4584;DHT22;2304;47.606;12.186;2023-12-07T10:25:21;6.40;62.20
4584;DHT22;2304;47.606;12.186;2023-12-07T10:30:23;6.60;61.80
4584;DHT22;2304;47.606;12.186;2023-12-07T10:35:27;6.60;61.80
4584;DHT22;2304;47.606;12.186;2023-12-07T10:40:29;6.70;61.60
4584;DHT22;2304;47.606;12.186;2023-12-07T10:45:32;6.50;60.80
4584;DHT22;2304;47.606;12.186;2023-12-07T10:50:37;5.90;60.00
4584;DHT22;2304;47.606;12.186;2023-12-07T10:55:46;5.80;60.80
4584;DHT22;2304;47.606;12.186;2023-12-07T11:00:49;6.10;61.00
4584;DHT22;2304;47.606;12.186;2023-12-07T11:05:52;6.30;61.20
4584;DHT22;2304;47.606;12.186;2023-12-07T11:11:01;6.40;61.00
4584;DHT22;2304;47.606;12.186;2023-12-07T11:16:06;6.70;60.30
4584;DHT22;2304;47.606;12.186;2023-12-07T11:21:10;6.80;60.30
4584;DHT22;2304;47.606;12.186;2023-12-07T11:26:12;7.10;59.50
4584;DHT22;2304;47.606;12.186;2023-12-07T11:31:13;7.30;58.40
4584;DHT22;2304;47.606;12.186;2023-12-07T11:36:17;7.50;57.40
4584;DHT22;2304;47.606;12.186;2023-12-07T11:41:20;7.60;57.30
4584;DHT22;2304;47.606;12.186;2023-12-07T11:46:21;7.60;57.10
4584;DHT22;2304;47.606;12.186;2023-12-07T11:51:26;7.80;57.00
4584;DHT22;2304;47.606;12.186;2023-12-07T11:56:30;7.90;56.40
4584;DHT22;2304;47.606;12.186;2023-12-07T12:01:32;8.10;56.50
4584;DHT22;2304;47.606;12.186;2023-12-07T12:06:35;8.20;56.50
4584;DHT22;2304;47.606;12.186;2023-12-07T12:11:43;8.10;55.50
4584;DHT22;2304;47.606;12.186;2023-12-07T12:16:47;8.10;55.70
4584;DHT22;2304;47.606;12.186;2023-12-07T12:21:50;8.00;56.10
4584;DHT22;2304;47.606;12.186;2023-12-07T12:26:52;7.80;54.90
4584;DHT22;2304;47.606;12.186;2023-12-07T12:31:54;7.90;56.20
4584;DHT22;2304;47.606;12.186;2023-12-07T12:36:57;7.70;55.40
4584;DHT22;2304;47.606;12.186;2023-12-07T12:41:59;7.70;55.00
4584;DHT22;2304;47.606;12.186;2023-12-07T12:47:01;7.60;55.50
4584;DHT22;2304;47.606;12.186;2023-12-07T12:52:05;7.80;54.10
4584;DHT22;2304;47.606;12.186;2023-12-07T12:57:11;7.90;54.20
4584;DHT22;2304;47.606;12.186;2023-12-07T13:02:14;8.00;53.30
4584;DHT22;2304;47.606;12.186;2023-12-07T13:07:19;8.00;52.80
4584;DHT22;2304;47.606;12.186;2023-12-07T13:12:21;8.10;53.60
4584;DHT22;2304;47.606;12.186;2023-12-07T13:17:23;8.10;52.50
4584;DHT22;2304;47.606;12.186;2023-12-07T13:22:26;8.10;52.80
4584;DHT22;2304;47.606;12.186;2023-12-07T13:27:28;8.20;52.80
4584;DHT22;2304;47.606;12.186;2023-12-07T13:32:30;8.20;52.80
4584;DHT22;2304;47.606;12.186;2023-12-07T13:37:33;8.10;53.40
4584;DHT22;2304;47.606;12.186;2023-12-07T13:42:35;8.00;53.30
4584;DHT22;2304;47.606;12.186;2023-12-07T13:47:37;8.30;54.10
4584;DHT22;2304;47.606;12.186;2023-12-07T13:52:40;8.40;53.10
4584;DHT22;2304;47.606;12.186;2023-12-07T13:57:43;8.50;53.00
4584;DHT22;2304;47.606;12.186;2023-12-07T14:02:45;8.30;52.40
4584;DHT22;2304;47.606;12.186;2023-12-07T14:07:48;8.40;54.20
4584;DHT22;2304;47.606;12.186;2023-12-07T14:12:50;8.70;52.10
4584;DHT22;2304;47.606;12.186;2023-12-07T14:17:52;8.60;51.60
4584;DHT22;2304;47.606;12.186;2023-12-07T14:22:55;8.50;53.00
4584;DHT22;2304;47.606;12.186;2023-12-07T14:27:57;8.60;53.40
4584;DHT22;2304;47.606;12.186;2023-12-07T14:32:59;8.20;52.30
4584;DHT22;2304;47.606;12.186;2023-12-07T14:38:02;8.10;53.60
4584;DHT22;2304;47.606;12.186;2023-12-07T14:43:04;7.80;53.00
4584;DHT22;2304;47.606;12.186;2023-12-07T14:48:06;7.10;54.10
4584;DHT22;2304;47.606;12.186;2023-12-07T14:53:09;6.70;55.80
4584;DHT22;2304;47.606;12.186;2023-12-07T14:58:11;6.20;56.50
4584;DHT22;2304;47.606;12.186;2023-12-07T15:03:13;6.10;57.60
4584;DHT22;2304;47.606;12.186;2023-12-07T15:08:16;5.80;57.90
4584;DHT22;2304;47.606;12.186;2023-12-07T15:13:18;5.60;58.60
4584;DHT22;2304;47.606;12.186;2023-12-07T15:18:20;5.30;58.80
4584;DHT22;2304;47.606;12.186;2023-12-07T15:23:23;5.00;59.80
4584;DHT22;2304;47.606;12.186;2023-12-07T15:28:24;4.90;60.40
4584;DHT22;2304;47.606;12.186;2023-12-07T15:33:26;4.70;61.30
4584;DHT22;2304;47.606;12.186;2023-12-07T15:38:30;4.50;61.80
4584;DHT22;2304;47.606;12.186;2023-12-07T15:43:32;4.40;61.50
4584;DHT22;2304;47.606;12.186;2023-12-07T15:48:34;4.20;62.40
4584;DHT22;2304;47.606;12.186;2023-12-07T15:53:37;4.10;62.80
4584;DHT22;2304;47.606;12.186;2023-12-07T15:58:39;3.90;63.70
4584;DHT22;2304;47.606;12.186;2023-12-07T16:03:42;3.90;64.30
4584;DHT22;2304;47.606;12.186;2023-12-07T16:08:45;3.70;65.00
4584;DHT22;2304;47.606;12.186;2023-12-07T16:13:47;3.60;65.10
4584;DHT22;2304;47.606;12.186;2023-12-07T16:18:49;3.40;66.70
4584;DHT22;2304;47.606;12.186;2023-12-07T16:23:52;3.30;66.60
4584;DHT22;2304;47.606;12.186;2023-12-07T16:28:54;3.20;66.70
4584;DHT22;2304;47.606;12.186;2023-12-07T16:33:56;3.10;68.10
4584;DHT22;2304;47.606;12.186;2023-12-07T16:38:59;3.00;68.10
4584;DHT22;2304;47.606;12.186;2023-12-07T16:44:03;2.90;68.50
4584;DHT22;2304;47.606;12.186;2023-12-07T16:49:04;2.90;68.90
4584;DHT22;2304;47.606;12.186;2023-12-07T16:54:08;2.90;68.60
4584;DHT22;2304;47.606;12.186;2023-12-07T16:59:10;2.80;68.10
4584;DHT22;2304;47.606;12.186;2023-12-07T17:04:12;2.70;68.30
4584;DHT22;2304;47.606;12.186;2023-12-07T17:09:15;2.70;68.20
4584;DHT22;2304;47.606;12.186;2023-12-07T17:14:17;2.60;67.60
4584;DHT22;2304;47.606;12.186;2023-12-07T17:19:19;2.70;68.20
4584;DHT22;2304;47.606;12.186;2023-12-07T17:24:22;2.50;68.50
4584;DHT22;2304;47.606;12.186;2023-12-07T17:29:23;2.50;70.00
4584;DHT22;2304;47.606;12.186;2023-12-07T17:34:25;2.30;69.70
4584;DHT22;2304;47.606;12.186;2023-12-07T17:39:29;2.30;69.30
4584;DHT22;2304;47.606;12.186;2023-12-07T17:44:31;2.30;69.10
4584;DHT22;2304;47.606;12.186;2023-12-07T17:49:32;2.30;69.40
4584;DHT22;2304;47.606;12.186;2023-12-07T17:54:36;2.30;69.50
4584;DHT22;2304;47.606;12.186;2023-12-07T17:59:38;2.30;69.30
4584;DHT22;2304;47.606;12.186;2023-12-07T18:04:39;2.20;69.00
4584;DHT22;2304;47.606;12.186;2023-12-07T18:09:42;2.00;69.50
4584;DHT22;2304;47.606;12.186;2023-12-07T18:14:44;2.00;69.80
4584;DHT22;2304;47.606;12.186;2023-12-07T18:19:46;2.00;70.10
4584;DHT22;2304;47.606;12.186;2023-12-07T18:24:49;1.90;70.30
4584;DHT22;2304;47.606;12.186;2023-12-07T18:29:51;1.90;70.70
4584;DHT22;2304;47.606;12.186;2023-12-07T18:34:53;1.80;70.50
4584;DHT22;2304;47.606;12.186;2023-12-07T18:39:56;1.70;70.70
4584;DHT22;2304;47.606;12.186;2023-12-07T18:44:58;1.60;70.80
4584;DHT22;2304;47.606;12.186;2023-12-07T18:50:01;1.60;70.70
4584;DHT22;2304;47.606;12.186;2023-12-07T18:55:05;1.50;70.50
4584;DHT22;2304;47.606;12.186;2023-12-07T19:00:08;1.40;70.60
4584;DHT22;2304;47.606;12.186;2023-12-07T19:05:10;1.40;70.70
4584;DHT22;2304;47.606;12.186;2023-12-07T19:10:13;1.50;71.00
4584;DHT22;2304;47.606;12.186;2023-12-07T19:15:15;1.60;70.90
4584;DHT22;2304;47.606;12.186;2023-12-07T19:20:17;1.50;70.60
4584;DHT22;2304;47.606;12.186;2023-12-07T19:25:20;1.40;70.90
4584;DHT22;2304;47.606;12.186;2023-12-07T19:30:22;1.40;71.00
4584;DHT22;2304;47.606;12.186;2023-12-07T19:35:24;1.50;70.90
4584;DHT22;2304;47.606;12.186;2023-12-07T19:40:27;1.40;70.00
4584;DHT22;2304;47.606;12.186;2023-12-07T19:45:29;1.50;70.30
4584;DHT22;2304;47.606;12.186;2023-12-07T19:50:31;1.40;69.60
4584;DHT22;2304;47.606;12.186;2023-12-07T19:55:34;1.30;70.10
4584;DHT22;2304;47.606;12.186;2023-12-07T20:00:36;1.30;70.00
4584;DHT22;2304;47.606;12.186;2023-12-07T20:05:38;1.30;69.80
4584;DHT22;2304;47.606;12.186;2023-12-07T20:10:41;1.20;69.60
4584;DHT22;2304;47.606;12.186;2023-12-07T20:15:43;1.20;69.80
4584;DHT22;2304;47.606;12.186;2023-12-07T20:20:45;1.00;69.50
4584;DHT22;2304;47.606;12.186;2023-12-07T20:25:48;1.00;70.40
4584;DHT22;2304;47.606;12.186;2023-12-07T20:30:50;0.90;70.80
4584;DHT22;2304;47.606;12.186;2023-12-07T20:35:52;0.90;70.60
4584;DHT22;2304;47.606;12.186;2023-12-07T20:40:55;0.90;70.70
4584;DHT22;2304;47.606;12.186;2023-12-07T20:45:57;0.80;70.60
4584;DHT22;2304;47.606;12.186;2023-12-07T20:50:59;0.70;71.30
4584;DHT22;2304;47.606;12.186;2023-12-07T20:56:02;0.60;71.60
4584;DHT22;2304;47.606;12.186;2023-12-07T21:01:05;0.60;71.90
4584;DHT22;2304;47.606;12.186;2023-12-07T21:06:07;0.60;72.00
4584;DHT22;2304;47.606;12.186;2023-12-07T21:11:11;0.60;71.40
4584;DHT22;2304;47.606;12.186;2023-12-07T21:16:13;0.50;71.30
4584;DHT22;2304;47.606;12.186;2023-12-07T21:21:15;0.50;71.40
4584;DHT22;2304;47.606;12.186;2023-12-07T21:26:18;0.40;71.10
4584;DHT22;2304;47.606;12.186;2023-12-07T21:31:20;0.30;71.70
4584;DHT22;2304;47.606;12.186;2023-12-07T21:36:22;0.30;71.90
4584;DHT22;2304;47.606;12.186;2023-12-07T21:41:25;0.30;72.10
4584;DHT22;2304;47.606;12.186;2023-12-07T21:46:27;0.10;72.30
4584;DHT22;2304;47.606;12.186;2023-12-07T21:51:29;0.20;71.60
4584;DHT22;2304;47.606;12.186;2023-12-07T21:56:32;0.30;71.60
4584;DHT22;2304;47.606;12.186;2023-12-07T22:01:34;0.40;70.90
4584;DHT22;2304;47.606;12.186;2023-12-07T22:06:36;0.40;70.60
4584;DHT22;2304;47.606;12.186;2023-12-07T22:11:39;0.30;70.80
4584;DHT22;2304;47.606;12.186;2023-12-07T22:16:41;0.20;70.80
4584;DHT22;2304;47.606;12.186;2023-12-07T22:21:43;0.20;70.50
4584;DHT22;2304;47.606;12.186;2023-12-07T22:26:46;0.20;70.10
4584;DHT22;2304;47.606;12.186;2023-12-07T22:31:48;0.10;69.90
4584;DHT22;2304;47.606;12.186;2023-12-07T22:36:50;0.10;70.00
4584;DHT22;2304;47.606;12.186;2023-12-07T22:41:53;0.10;69.80
4584;DHT22;2304;47.606;12.186;2023-12-07T22:46:55;0.00;69.80
4584;DHT22;2304;47.606;12.186;2023-12-07T22:51:56;0.00;70.30
4584;DHT22;2304;47.606;12.186;2023-12-07T22:56:59;-0.10;70.00
4584;DHT22;2304;47.606;12.186;2023-12-07T23:02:03;-0.20;69.90
4584;DHT22;2304;47.606;12.186;2023-12-07T23:07:05;-0.20;70.20
4584;DHT22;2304;47.606;12.186;2023-12-07T23:12:08;-0.20;70.50
4584;DHT22;2304;47.606;12.186;2023-12-07T23:17:10;-0.30;70.00
4584;DHT22;2304;47.606;12.186;2023-12-07T23:22:12;-0.30;70.00
4584;DHT22;2304;47.606;12.186;2023-12-07T23:27:15;-0.30;69.80
4584;DHT22;2304;47.606;12.186;2023-12-07T23:32:17;-0.20;70.10
4584;DHT22;2304;47.606;12.186;2023-12-07T23:37:19;-0.20;69.40
4584;DHT22;2304;47.606;12.186;2023-12-07T23:42:22;-0.30;69.30
4584;DHT22;2304;47.606;12.186;2023-12-07T23:47:24;-0.40;69.50
4584;DHT22;2304;47.606;12.186;2023-12-07T23:52:26;-0.50;69.60
4584;DHT22;2304;47.606;12.186;2023-12-07T23:57:29;-0.50;70.00
